createdAt,value
2018-10-06T00:00:57.450Z,4.00
2018-10-06T00:01:57.469Z,4.00
2018-10-06T00:02:57.484Z,4.00
2018-10-06T00:03:57.505Z,4.00
2018-10-06T00:04:57.527Z,4.00
2018-10-06T00:05:57.547Z,4.00
2018-10-06T00:06:57.565Z,4.00
2018-10-06T00:07:57.586Z,4.00
2018-10-06T00:08:57.601Z,8.00
2018-10-06T00:09:57.623Z,4.00
2018-10-06T00:10:57.641Z,4.00
2018-10-06T00:11:57.662Z,4.00
2018-10-06T00:12:57.680Z,4.00
2018-10-06T00:13:57.697Z,4.00
2018-10-06T00:14:57.719Z,4.00
2018-10-06T00:15:57.736Z,4.00
2018-10-06T00:16:57.757Z,4.00
2018-10-06T00:17:57.777Z,4.00
2018-10-06T00:18:57.796Z,4.00
2018-10-06T00:19:57.813Z,4.00
2018-10-06T00:20:57.832Z,4.00
2018-10-06T00:21:57.852Z,4.00
2018-10-06T00:22:57.871Z,4.00
2018-10-06T00:23:57.893Z,4.00
2018-10-06T00:24:57.912Z,4.00
2018-10-06T00:25:57.929Z,4.00
2018-10-06T00:26:57.950Z,4.00
2018-10-06T00:27:57.970Z,4.00
2018-10-06T00:28:57.988Z,4.00
2018-10-06T00:29:58.008Z,4.00
2018-10-06T00:30:58.028Z,4.00
2018-10-06T00:31:58.043Z,4.00
2018-10-06T00:32:58.067Z,4.00
2018-10-06T00:33:58.085Z,4.00
2018-10-06T00:34:58.101Z,4.00
2018-10-06T00:35:58.124Z,4.00
2018-10-06T00:36:58.140Z,4.00
2018-10-06T00:37:58.162Z,4.00
2018-10-06T00:38:58.178Z,4.00
2018-10-06T00:39:58.199Z,4.00
2018-10-06T00:40:58.219Z,4.00
2018-10-06T00:41:58.239Z,4.00
2018-10-06T00:42:58.254Z,4.00
2018-10-06T00:43:58.273Z,8.00
2018-10-06T00:44:58.300Z,4.00
2018-10-06T00:45:58.317Z,4.00
2018-10-06T00:46:58.331Z,4.00
2018-10-06T00:47:58.353Z,4.00
2018-10-06T00:48:58.371Z,4.00
2018-10-06T00:49:58.389Z,4.00
2018-10-06T00:50:58.411Z,4.00
2018-10-06T00:51:58.430Z,4.00
2018-10-06T00:52:58.447Z,8.00
2018-10-06T00:53:58.469Z,8.00
2018-10-06T00:54:58.484Z,4.00
2018-10-06T00:55:58.512Z,8.00
2018-10-06T00:56:58.523Z,8.00
2018-10-06T00:57:58.545Z,4.00
2018-10-06T00:58:58.563Z,4.00
2018-10-06T00:59:58.580Z,4.00
2018-10-06T01:00:58.602Z,4.00
2018-10-06T01:01:58.622Z,4.00
2018-10-06T01:02:58.838Z,8.00
2018-10-06T01:03:58.658Z,8.00
2018-10-06T01:04:58.675Z,8.00
2018-10-06T01:05:58.697Z,8.00
2018-10-06T01:06:58.719Z,4.00
2018-10-06T01:07:58.736Z,4.00
2018-10-06T01:08:58.755Z,4.00
2018-10-06T01:09:58.771Z,4.00
2018-10-06T01:10:58.793Z,4.00
2018-10-06T01:11:58.809Z,4.00
2018-10-06T01:12:58.829Z,4.00
2018-10-06T01:13:58.851Z,4.00
2018-10-06T01:14:58.871Z,4.00
2018-10-06T01:15:58.888Z,4.00
2018-10-06T01:16:58.904Z,4.00
2018-10-06T01:17:58.927Z,4.00
2018-10-06T01:18:58.942Z,4.00
2018-10-06T01:19:58.967Z,4.00
2018-10-06T01:20:58.984Z,4.00
2018-10-06T01:21:59.001Z,4.00
2018-10-06T01:22:59.018Z,4.00
2018-10-06T01:23:59.040Z,4.00
2018-10-06T01:24:59.059Z,4.00
2018-10-06T01:25:59.077Z,4.00
2018-10-06T01:26:59.094Z,4.00
2018-10-06T01:27:59.117Z,4.00
2018-10-06T01:28:59.145Z,4.00
2018-10-06T01:29:59.152Z,4.00
2018-10-06T01:30:59.173Z,4.00
2018-10-06T01:31:59.193Z,4.00
2018-10-06T01:32:59.211Z,4.00
2018-10-06T01:33:59.229Z,4.00
2018-10-06T01:34:59.248Z,4.00
2018-10-06T01:35:59.268Z,4.00
2018-10-06T01:36:59.286Z,4.00
2018-10-06T01:37:59.307Z,4.00
2018-10-06T01:38:59.324Z,4.00
2018-10-06T01:39:59.345Z,4.00
2018-10-06T01:40:59.368Z,4.00
2018-10-06T01:41:59.380Z,4.00
2018-10-06T01:42:59.401Z,4.00
2018-10-06T01:43:59.417Z,4.00
2018-10-06T01:44:59.436Z,4.00
2018-10-06T01:45:59.458Z,4.00
2018-10-06T01:46:59.474Z,4.00
2018-10-06T01:47:59.496Z,4.00
2018-10-06T01:48:59.512Z,4.00
2018-10-06T01:49:59.613Z,4.00
2018-10-06T01:50:59.558Z,4.00
2018-10-06T01:51:59.571Z,4.00
2018-10-06T01:52:59.591Z,4.00
2018-10-06T01:53:59.607Z,4.00
2018-10-06T01:54:59.625Z,4.00
2018-10-06T01:55:59.644Z,4.00
2018-10-06T01:56:59.666Z,4.00
2018-10-06T01:57:59.685Z,4.00
2018-10-06T01:58:59.702Z,4.00
2018-10-06T01:59:59.721Z,4.00
2018-10-06T02:00:59.746Z,4.00
2018-10-06T02:01:59.761Z,4.00
2018-10-06T02:02:59.777Z,4.00
2018-10-06T02:03:59.797Z,4.00
2018-10-06T02:04:59.818Z,4.00
2018-10-06T02:05:59.833Z,4.00
2018-10-06T02:06:59.854Z,4.00
2018-10-06T02:07:59.870Z,4.00
2018-10-06T02:08:59.892Z,4.00
2018-10-06T02:09:59.912Z,4.00
2018-10-06T02:10:59.926Z,4.00
2018-10-06T02:11:59.949Z,4.00
2018-10-06T02:12:59.966Z,4.00
2018-10-06T02:13:59.984Z,4.00
2018-10-06T02:15:00.004Z,4.00
2018-10-06T02:16:00.021Z,4.00
2018-10-06T02:17:00.041Z,4.00
2018-10-06T02:18:00.059Z,4.00
2018-10-06T02:19:00.079Z,4.00
2018-10-06T02:20:00.097Z,4.00
2018-10-06T02:21:00.117Z,4.00
2018-10-06T02:22:00.135Z,4.00
2018-10-06T02:23:00.155Z,4.00
2018-10-06T02:24:00.174Z,4.00
2018-10-06T02:25:00.190Z,4.00
2018-10-06T02:26:00.212Z,4.00
2018-10-06T02:27:00.231Z,4.00
2018-10-06T02:28:00.249Z,4.00
2018-10-06T02:29:00.268Z,4.00
2018-10-06T02:30:00.316Z,4.00
2018-10-06T02:31:00.307Z,4.00
2018-10-06T02:32:00.323Z,4.00
2018-10-06T02:33:00.344Z,4.00
2018-10-06T02:34:00.362Z,4.00
2018-10-06T02:35:00.378Z,4.00
2018-10-06T02:36:00.396Z,4.00
2018-10-06T02:37:00.419Z,4.00
2018-10-06T02:38:00.437Z,4.00
2018-10-06T02:39:00.452Z,4.00
2018-10-06T02:40:00.471Z,4.00
2018-10-06T02:41:00.494Z,4.00
2018-10-06T02:42:00.512Z,4.00
2018-10-06T02:43:00.528Z,4.00
2018-10-06T02:44:00.546Z,4.00
2018-10-06T02:45:00.569Z,4.00
2018-10-06T02:46:00.585Z,4.00
2018-10-06T02:47:00.605Z,4.00
2018-10-06T02:48:00.621Z,4.00
2018-10-06T02:49:00.646Z,4.00
2018-10-06T02:50:00.659Z,4.00
2018-10-06T02:51:00.679Z,4.00
2018-10-06T02:52:00.696Z,4.00
2018-10-06T02:53:00.714Z,4.00
2018-10-06T02:54:00.736Z,4.00
2018-10-06T02:55:00.751Z,4.00
2018-10-06T02:56:00.773Z,4.00
2018-10-06T02:57:00.791Z,4.00
2018-10-06T02:58:00.811Z,4.00
2018-10-06T02:59:00.826Z,4.00
2018-10-06T03:00:00.847Z,4.00
2018-10-06T03:01:00.863Z,4.00
2018-10-06T03:02:00.887Z,4.00
2018-10-06T03:03:00.900Z,4.00
2018-10-06T03:04:00.919Z,4.00
2018-10-06T03:05:00.941Z,4.00
2018-10-06T03:06:00.956Z,4.00
2018-10-06T03:07:00.976Z,4.00
2018-10-06T03:08:00.993Z,4.00
2018-10-06T03:09:01.012Z,4.00
2018-10-06T03:10:01.030Z,4.00
2018-10-06T03:11:01.048Z,4.00
2018-10-06T03:12:01.070Z,4.00
2018-10-06T03:13:01.086Z,4.00
2018-10-06T03:14:01.106Z,4.00
2018-10-06T03:15:01.123Z,4.00
2018-10-06T03:16:01.142Z,4.00
2018-10-06T03:17:01.166Z,4.00
2018-10-06T03:18:01.181Z,4.00
2018-10-06T03:19:01.197Z,4.00
2018-10-06T03:20:01.219Z,4.00
2018-10-06T03:21:01.236Z,4.00
2018-10-06T03:22:01.253Z,4.00
2018-10-06T03:23:01.272Z,4.00
2018-10-06T03:24:01.291Z,4.00
2018-10-06T03:25:01.350Z,4.00
2018-10-06T03:26:01.331Z,4.00
2018-10-06T03:27:01.350Z,4.00
2018-10-06T03:28:01.366Z,4.00
2018-10-06T03:29:01.387Z,4.00
2018-10-06T03:30:01.407Z,4.00
2018-10-06T03:31:01.419Z,4.00
2018-10-06T03:32:01.442Z,4.00
2018-10-06T03:33:01.459Z,4.00
2018-10-06T03:34:01.479Z,4.00
2018-10-06T03:35:01.493Z,4.00
2018-10-06T03:36:01.517Z,4.00
2018-10-06T03:37:01.534Z,4.00
2018-10-06T03:38:01.556Z,4.00
2018-10-06T03:39:01.570Z,4.00
2018-10-06T03:40:01.589Z,4.00
2018-10-06T03:41:01.605Z,4.00
2018-10-06T03:42:01.629Z,4.00
2018-10-06T03:43:01.643Z,4.00
2018-10-06T03:44:01.666Z,4.00
2018-10-06T03:45:01.682Z,4.00
2018-10-06T03:46:01.698Z,4.00
2018-10-06T03:47:01.715Z,4.00
2018-10-06T03:48:01.733Z,4.00
2018-10-06T03:49:01.755Z,4.00
2018-10-06T03:50:01.772Z,4.00
2018-10-06T03:51:01.792Z,4.00
2018-10-06T03:52:01.809Z,4.00
2018-10-06T03:53:01.828Z,4.00
2018-10-06T03:54:01.932Z,4.00
2018-10-06T03:55:01.873Z,4.00
2018-10-06T03:56:01.888Z,4.00
2018-10-06T03:57:01.902Z,4.00
2018-10-06T03:58:01.921Z,4.00
2018-10-06T03:59:01.937Z,4.00
2018-10-06T04:00:01.957Z,4.00
2018-10-06T04:01:01.981Z,4.00
2018-10-06T04:02:01.991Z,4.00
2018-10-06T04:03:02.009Z,4.00
2018-10-06T04:04:02.029Z,4.00
2018-10-06T04:05:02.046Z,4.00
2018-10-06T04:06:02.070Z,4.00
2018-10-06T04:07:02.085Z,4.00
2018-10-06T04:08:02.100Z,4.00
2018-10-06T04:09:02.122Z,4.00
2018-10-06T04:10:02.138Z,4.00
2018-10-06T04:11:02.154Z,4.00
2018-10-06T04:12:02.176Z,4.00
2018-10-06T04:13:02.195Z,4.00
2018-10-06T04:14:02.213Z,4.00
2018-10-06T04:15:02.228Z,4.00
2018-10-06T04:16:02.250Z,4.00
2018-10-06T04:17:02.269Z,4.00
2018-10-06T04:18:02.291Z,4.00
2018-10-06T04:19:02.302Z,4.00
2018-10-06T04:20:02.325Z,4.00
2018-10-06T04:21:02.343Z,4.00
2018-10-06T04:22:02.357Z,4.00
2018-10-06T04:23:02.375Z,4.00
2018-10-06T04:24:02.397Z,4.00
2018-10-06T04:25:02.415Z,4.00
2018-10-06T04:26:02.433Z,4.00
2018-10-06T04:27:02.450Z,4.00
2018-10-06T04:28:02.467Z,4.00
2018-10-06T04:29:02.484Z,4.00
2018-10-06T04:30:02.505Z,4.00
2018-10-06T04:31:02.522Z,4.00
2018-10-06T04:32:02.587Z,4.00
2018-10-06T04:33:02.558Z,4.00
2018-10-06T04:34:02.579Z,4.00
2018-10-06T04:35:02.594Z,4.00
2018-10-06T04:36:02.612Z,4.00
2018-10-06T04:37:02.630Z,4.00
2018-10-06T04:38:02.652Z,4.00
2018-10-06T04:39:02.667Z,4.00
2018-10-06T04:40:02.691Z,4.00
2018-10-06T04:41:02.703Z,4.00
2018-10-06T04:42:02.724Z,4.00
2018-10-06T04:43:02.742Z,4.00
2018-10-06T04:44:02.757Z,4.00
2018-10-06T04:45:02.781Z,4.00
2018-10-06T04:46:02.795Z,4.00
2018-10-06T04:47:02.813Z,4.00
2018-10-06T04:48:02.831Z,4.00
2018-10-06T04:49:02.849Z,4.00
2018-10-06T04:50:02.868Z,4.00
2018-10-06T04:51:02.889Z,4.00
2018-10-06T04:52:02.904Z,4.00
2018-10-06T04:53:02.976Z,4.00
2018-10-06T04:54:02.940Z,4.00
2018-10-06T04:55:02.960Z,4.00
2018-10-06T04:56:02.981Z,4.00
2018-10-06T04:57:02.998Z,4.00
2018-10-06T04:58:03.016Z,4.00
2018-10-06T04:59:03.034Z,4.00
2018-10-06T05:00:03.049Z,4.00
2018-10-06T05:01:03.071Z,4.00
2018-10-06T05:02:03.087Z,4.00
2018-10-06T05:03:03.107Z,4.00
2018-10-06T05:04:03.127Z,4.00
2018-10-06T05:05:03.143Z,8.00
2018-10-06T05:06:03.162Z,8.00
2018-10-06T05:07:03.177Z,8.00
2018-10-06T05:08:03.197Z,4.00
2018-10-06T05:09:03.212Z,4.00
2018-10-06T05:10:03.234Z,8.00
2018-10-06T05:11:03.252Z,8.00
2018-10-06T05:12:03.267Z,8.00
2018-10-06T05:13:03.288Z,8.00
2018-10-06T05:14:03.305Z,8.00
2018-10-06T05:15:03.321Z,8.00
2018-10-06T05:16:03.340Z,8.00
2018-10-06T05:17:03.357Z,12.00
2018-10-06T05:18:03.381Z,12.00
2018-10-06T05:19:03.403Z,12.00
2018-10-06T05:20:03.415Z,12.00
2018-10-06T05:21:03.431Z,12.00
2018-10-06T05:22:03.449Z,12.00
2018-10-06T05:23:03.467Z,16.00
2018-10-06T05:24:03.488Z,16.00
2018-10-06T05:25:03.507Z,24.00
2018-10-06T05:26:03.521Z,24.00
2018-10-06T05:27:03.538Z,28.00
2018-10-06T05:28:03.559Z,32.00
2018-10-06T05:29:03.575Z,40.00
2018-10-06T05:30:03.593Z,44.00
2018-10-06T05:31:03.615Z,44.00
2018-10-06T05:32:03.628Z,52.00
2018-10-06T05:33:03.647Z,60.00
2018-10-06T05:34:03.787Z,68.00
2018-10-06T05:35:03.683Z,76.00
2018-10-06T05:36:03.704Z,88.00
2018-10-06T05:37:03.726Z,96.00
2018-10-06T05:38:03.739Z,104.00
2018-10-06T05:39:03.757Z,116.00
2018-10-06T05:40:03.776Z,128.00
2018-10-06T05:41:03.791Z,144.00
2018-10-06T05:42:03.810Z,160.00
2018-10-06T05:43:03.830Z,172.00
2018-10-06T05:44:03.846Z,188.00
2018-10-06T05:45:03.864Z,204.00
2018-10-06T05:46:03.884Z,216.00
2018-10-06T05:47:03.899Z,236.00
2018-10-06T05:48:03.921Z,248.00
2018-10-06T05:49:03.942Z,264.00
2018-10-06T05:50:03.957Z,280.00
2018-10-06T05:51:03.975Z,300.00
2018-10-06T05:52:03.994Z,320.00
2018-10-06T05:53:04.009Z,336.00
2018-10-06T05:54:04.029Z,352.00
2018-10-06T05:55:04.046Z,368.00
2018-10-06T05:56:04.062Z,392.00
2018-10-06T05:57:04.080Z,412.00
2018-10-06T05:58:04.100Z,428.00
2018-10-06T05:59:04.194Z,440.00
2018-10-06T06:00:04.138Z,452.00
2018-10-06T06:01:04.156Z,468.00
2018-10-06T06:02:04.175Z,480.00
2018-10-06T06:03:04.191Z,492.00
2018-10-06T06:04:04.206Z,512.00
2018-10-06T06:05:04.228Z,524.00
2018-10-06T06:06:04.243Z,544.00
2018-10-06T06:07:04.264Z,564.00
2018-10-06T06:08:04.282Z,580.00
2018-10-06T06:09:04.297Z,596.00
2018-10-06T06:10:04.319Z,612.00
2018-10-06T06:11:04.332Z,624.00
2018-10-06T06:12:04.353Z,640.00
2018-10-06T06:13:04.375Z,656.00
2018-10-06T06:14:04.389Z,672.00
2018-10-06T06:15:04.406Z,696.00
2018-10-06T06:16:04.423Z,720.00
2018-10-06T06:17:04.442Z,744.00
2018-10-06T06:18:04.463Z,756.00
2018-10-06T06:19:04.480Z,756.00
2018-10-06T06:20:04.496Z,772.00
2018-10-06T06:21:04.516Z,780.00
2018-10-06T06:22:04.537Z,796.00
2018-10-06T06:23:04.553Z,808.00
2018-10-06T06:24:04.678Z,828.00
2018-10-06T06:25:04.587Z,840.00
2018-10-06T06:26:04.608Z,856.00
2018-10-06T06:27:04.624Z,876.00
2018-10-06T06:28:04.643Z,896.00
2018-10-06T06:29:04.660Z,960.00
2018-10-06T06:30:04.677Z,932.00
2018-10-06T06:31:04.699Z,1032.00
2018-10-06T06:32:04.725Z,1024.00
2018-10-06T06:33:04.730Z,980.00
2018-10-06T06:34:04.753Z,952.00
2018-10-06T06:35:04.772Z,1004.00
2018-10-06T06:36:04.785Z,1048.00
2018-10-06T06:37:04.803Z,1084.00
2018-10-06T06:38:04.824Z,1088.00
2018-10-06T06:39:04.843Z,1088.00
2018-10-06T06:40:04.858Z,1100.00
2018-10-06T06:41:04.878Z,1116.00
2018-10-06T06:42:04.898Z,1152.00
2018-10-06T06:43:04.912Z,1164.00
2018-10-06T06:44:05.024Z,1200.00
2018-10-06T06:45:04.980Z,1236.00
2018-10-06T06:46:04.969Z,1244.00
2018-10-06T06:47:04.987Z,1264.00
2018-10-06T06:48:05.003Z,1268.00
2018-10-06T06:49:05.025Z,1260.00
2018-10-06T06:50:05.041Z,1268.00
2018-10-06T06:51:05.060Z,1284.00
2018-10-06T06:52:05.077Z,1272.00
2018-10-06T06:53:05.099Z,1316.00
2018-10-06T06:54:05.116Z,1544.00
2018-10-06T06:55:05.271Z,1660.00
2018-10-06T06:56:05.148Z,1480.00
2018-10-06T06:57:05.167Z,1440.00
2018-10-06T06:58:05.186Z,1444.00
2018-10-06T06:59:05.203Z,1484.00
2018-10-06T07:00:05.222Z,1456.00
2018-10-06T07:01:05.244Z,1464.00
2018-10-06T07:02:05.263Z,1500.00
2018-10-06T07:03:05.280Z,1512.00
2018-10-06T07:04:05.297Z,1516.00
2018-10-06T07:05:05.314Z,1540.00
2018-10-06T07:06:05.332Z,1568.00
2018-10-06T07:07:05.352Z,1560.00
2018-10-06T07:08:05.371Z,1584.00
2018-10-06T07:09:05.390Z,1604.00
2018-10-06T07:10:05.408Z,1644.00
2018-10-06T07:11:05.425Z,1692.00
2018-10-06T07:12:05.442Z,1712.00
2018-10-06T07:13:05.461Z,1748.00
2018-10-06T07:14:05.482Z,1788.00
2018-10-06T07:15:05.499Z,1812.00
2018-10-06T07:16:05.516Z,1844.00
2018-10-06T07:17:05.539Z,1876.00
2018-10-06T07:18:05.553Z,1900.00
2018-10-06T07:19:05.576Z,1928.00
2018-10-06T07:20:05.594Z,1952.00
2018-10-06T07:21:05.609Z,1972.00
2018-10-06T07:22:05.627Z,1992.00
2018-10-06T07:23:05.645Z,2012.00
2018-10-06T07:24:05.664Z,2016.00
2018-10-06T07:25:05.683Z,2052.00
2018-10-06T07:26:05.705Z,2072.00
2018-10-06T07:27:05.719Z,2084.00
2018-10-06T07:28:05.738Z,2100.00
2018-10-06T07:29:05.762Z,2132.00
2018-10-06T07:30:05.776Z,2148.00
2018-10-06T07:31:05.798Z,2176.00
2018-10-06T07:32:05.814Z,2192.00
2018-10-06T07:33:05.832Z,2224.00
2018-10-06T07:34:05.851Z,2236.00
2018-10-06T07:35:05.873Z,2252.00
2018-10-06T07:36:05.888Z,2272.00
2018-10-06T07:37:05.915Z,2296.00
2018-10-06T07:38:05.929Z,2312.00
2018-10-06T07:39:05.948Z,2340.00
2018-10-06T07:40:05.967Z,2356.00
2018-10-06T07:41:05.993Z,2380.00
2018-10-06T07:42:06.008Z,2400.00
2018-10-06T07:43:06.025Z,2420.00
2018-10-06T07:44:06.042Z,2432.00
2018-10-06T07:45:06.067Z,2452.00
2018-10-06T07:46:06.087Z,2472.00
2018-10-06T07:47:06.133Z,2488.00
2018-10-06T07:48:06.120Z,2508.00
2018-10-06T07:49:06.137Z,2524.00
2018-10-06T07:50:06.157Z,2548.00
2018-10-06T07:51:06.177Z,2552.00
2018-10-06T07:52:06.193Z,2564.00
2018-10-06T07:53:06.269Z,2580.00
2018-10-06T07:54:06.232Z,2596.00
2018-10-06T07:55:06.252Z,2596.00
2018-10-06T07:56:06.269Z,2616.00
2018-10-06T07:57:06.288Z,2624.00
2018-10-06T07:58:06.310Z,2640.00
2018-10-06T07:59:06.343Z,2676.00
2018-10-06T08:00:06.348Z,2684.00
2018-10-06T08:01:06.375Z,2688.00
2018-10-06T08:02:06.391Z,2692.00
2018-10-06T08:03:06.405Z,2704.00
2018-10-06T08:04:06.428Z,2732.00
2018-10-06T08:05:06.450Z,2744.00
2018-10-06T08:06:06.468Z,2748.00
2018-10-06T08:07:06.481Z,2768.00
2018-10-06T08:08:06.507Z,2772.00
2018-10-06T08:09:06.524Z,2788.00
2018-10-06T08:10:06.541Z,2804.00
2018-10-06T08:11:06.569Z,2816.00
2018-10-06T08:12:06.581Z,2840.00
2018-10-06T08:13:06.602Z,2844.00
2018-10-06T08:14:06.625Z,2876.00
2018-10-06T08:15:06.647Z,2864.00
2018-10-06T08:16:06.660Z,2868.00
2018-10-06T08:17:06.680Z,2872.00
2018-10-06T08:18:06.707Z,2884.00
2018-10-06T08:19:06.719Z,2896.00
2018-10-06T08:20:06.744Z,2896.00
2018-10-06T08:21:06.763Z,2896.00
2018-10-06T08:22:06.784Z,2908.00
2018-10-06T08:23:06.804Z,2904.00
2018-10-06T08:24:06.822Z,2944.00
2018-10-06T08:25:06.845Z,2948.00
2018-10-06T08:26:06.863Z,2956.00
2018-10-06T08:27:06.885Z,2980.00
2018-10-06T08:28:06.903Z,2984.00
2018-10-06T08:29:06.923Z,2996.00
2018-10-06T08:30:06.946Z,3004.00
2018-10-06T08:31:06.966Z,3012.00
2018-10-06T08:32:06.985Z,3040.00
2018-10-06T08:33:07.008Z,3048.00
2018-10-06T08:34:07.028Z,3048.00
2018-10-06T08:35:07.055Z,3084.00
2018-10-06T08:36:07.066Z,3084.00
2018-10-06T08:37:07.092Z,3084.00
2018-10-06T08:38:07.114Z,3116.00
2018-10-06T08:39:07.131Z,3120.00
2018-10-06T08:40:07.152Z,3136.00
2018-10-06T08:41:07.172Z,3140.00
2018-10-06T08:42:07.191Z,3160.00
2018-10-06T08:43:07.214Z,3160.00
2018-10-06T08:44:07.232Z,3208.00
2018-10-06T08:45:07.257Z,3216.00
2018-10-06T08:46:07.275Z,3232.00
2018-10-06T08:47:07.295Z,3244.00
2018-10-06T08:48:07.316Z,3260.00
2018-10-06T08:49:07.340Z,3252.00
2018-10-06T08:50:07.370Z,3480.00
2018-10-06T08:51:07.385Z,3308.00
2018-10-06T08:52:07.415Z,3328.00
2018-10-06T08:53:07.421Z,3352.00
2018-10-06T08:54:07.446Z,3364.00
2018-10-06T08:55:07.471Z,3380.00
2018-10-06T08:56:07.599Z,3396.00
2018-10-06T08:57:07.509Z,3424.00
2018-10-06T08:58:07.533Z,3452.00
2018-10-06T08:59:07.551Z,3476.00
2018-10-06T09:00:07.578Z,3516.00
2018-10-06T09:01:07.603Z,3540.00
2018-10-06T09:02:07.616Z,3568.00
2018-10-06T09:03:07.647Z,3596.00
2018-10-06T09:04:07.677Z,3620.00
2018-10-06T09:05:07.685Z,3652.00
2018-10-06T09:06:07.704Z,3680.00
2018-10-06T09:07:07.723Z,3680.00
2018-10-06T09:08:07.750Z,3732.00
2018-10-06T09:09:07.775Z,3728.00
2018-10-06T09:10:07.793Z,3752.00
2018-10-06T09:11:07.835Z,3756.00
2018-10-06T09:12:07.834Z,3772.00
2018-10-06T09:13:07.855Z,3792.00
2018-10-06T09:14:07.880Z,3824.00
2018-10-06T09:15:07.903Z,3848.00
2018-10-06T09:16:07.924Z,3832.00
2018-10-06T09:17:07.942Z,3884.00
2018-10-06T09:18:07.965Z,3864.00
2018-10-06T09:19:07.995Z,3856.00
2018-10-06T09:20:08.010Z,3892.00
2018-10-06T09:21:08.031Z,3900.00
2018-10-06T09:22:08.052Z,3900.00
2018-10-06T09:23:08.075Z,3912.00
2018-10-06T09:24:08.096Z,3928.00
2018-10-06T09:25:08.120Z,3956.00
2018-10-06T09:26:08.142Z,3960.00
2018-10-06T09:27:08.168Z,3980.00
2018-10-06T09:28:08.236Z,3972.00
2018-10-06T09:29:08.211Z,4004.00
2018-10-06T09:30:08.235Z,3996.00
2018-10-06T09:31:08.258Z,3996.00
2018-10-06T09:32:08.280Z,3936.00
2018-10-06T09:33:08.302Z,3996.00
2018-10-06T09:34:08.325Z,4000.00
2018-10-06T09:35:08.344Z,4292.00
2018-10-06T09:36:08.370Z,3996.00
2018-10-06T09:37:08.397Z,3984.00
2018-10-06T09:38:08.413Z,4028.00
2018-10-06T09:39:08.438Z,3984.00
2018-10-06T09:40:08.460Z,4016.00
2018-10-06T09:41:08.483Z,4028.00
2018-10-06T09:42:08.612Z,3992.00
2018-10-06T09:43:08.533Z,4012.00
2018-10-06T09:44:08.554Z,4020.00
2018-10-06T09:45:08.572Z,4012.00
2018-10-06T09:46:08.596Z,4052.00
2018-10-06T09:47:08.621Z,4020.00
2018-10-06T09:48:08.769Z,4024.00
2018-10-06T09:49:08.667Z,4020.00
2018-10-06T09:50:08.692Z,4008.00
2018-10-06T09:51:08.711Z,4036.00
2018-10-06T09:52:08.733Z,4024.00
2018-10-06T09:53:08.757Z,4032.00
2018-10-06T09:54:08.783Z,4028.00
2018-10-06T09:55:08.805Z,4068.00
2018-10-06T09:56:08.829Z,4044.00
2018-10-06T09:57:08.851Z,4080.00
2018-10-06T09:58:08.873Z,4092.00
2018-10-06T09:59:08.896Z,4060.00
2018-10-06T10:00:08.920Z,4052.00
2018-10-06T10:01:08.944Z,4108.00
2018-10-06T10:02:08.971Z,4056.00
2018-10-06T10:03:08.990Z,4068.00
2018-10-06T10:04:09.016Z,4152.00
2018-10-06T10:05:09.038Z,4056.00
2018-10-06T10:06:09.064Z,4084.00
2018-10-06T10:07:09.094Z,4072.00
2018-10-06T10:08:09.111Z,4164.00
2018-10-06T10:09:09.132Z,4044.00
2018-10-06T10:10:09.156Z,4060.00
2018-10-06T10:11:09.185Z,4032.00
2018-10-06T10:12:09.205Z,4016.00
2018-10-06T10:13:09.235Z,3996.00
2018-10-06T10:14:09.255Z,3968.00
2018-10-06T10:15:09.276Z,3960.00
2018-10-06T10:16:09.300Z,4012.00
2018-10-06T10:17:09.427Z,3984.00
2018-10-06T10:18:09.453Z,3916.00
2018-10-06T10:19:09.374Z,3840.00
2018-10-06T10:20:09.394Z,3860.00
2018-10-06T10:21:09.418Z,3800.00
2018-10-06T10:22:09.614Z,3784.00
2018-10-06T10:23:09.569Z,3828.00
2018-10-06T10:24:09.487Z,3928.00
2018-10-06T10:25:09.514Z,3760.00
2018-10-06T10:26:09.538Z,3556.00
2018-10-06T10:27:09.559Z,3880.00
2018-10-06T10:28:09.586Z,3848.00
2018-10-06T10:29:09.614Z,3976.00
2018-10-06T10:30:09.632Z,3960.00
2018-10-06T10:31:09.658Z,3976.00
2018-10-06T10:32:09.683Z,4000.00
2018-10-06T10:33:09.704Z,4028.00
2018-10-06T10:34:09.729Z,3988.00
2018-10-06T10:35:09.752Z,4028.00
2018-10-06T10:36:09.776Z,4024.00
2018-10-06T10:37:09.805Z,3988.00
2018-10-06T10:38:09.827Z,4008.00
2018-10-06T10:39:09.867Z,3972.00
2018-10-06T10:40:09.877Z,3884.00
2018-10-06T10:41:09.897Z,3900.00
2018-10-06T10:42:09.922Z,3992.00
2018-10-06T10:43:09.944Z,3996.00
2018-10-06T10:44:09.982Z,3900.00
2018-10-06T10:45:09.996Z,3900.00
2018-10-06T10:46:10.019Z,3896.00
2018-10-06T10:47:10.042Z,3832.00
2018-10-06T10:48:10.094Z,3840.00
2018-10-06T10:49:10.098Z,3860.00
2018-10-06T10:50:10.169Z,3780.00
2018-10-06T10:51:10.142Z,3796.00
2018-10-06T10:52:10.164Z,3964.00
2018-10-06T10:53:10.192Z,3932.00
2018-10-06T10:54:10.213Z,3716.00
2018-10-06T10:55:10.236Z,3444.00
2018-10-06T10:56:10.261Z,3880.00
2018-10-06T10:57:10.289Z,3804.00
2018-10-06T10:58:10.311Z,3876.00
2018-10-06T10:59:10.338Z,3844.00
2018-10-06T11:00:10.405Z,3812.00
2018-10-06T11:01:10.449Z,3760.00
2018-10-06T11:02:10.409Z,3792.00
2018-10-06T11:03:10.435Z,3776.00
2018-10-06T11:04:10.457Z,3812.00
2018-10-06T11:05:10.482Z,3740.00
2018-10-06T11:06:10.508Z,3684.00
2018-10-06T11:07:10.530Z,3728.00
2018-10-06T11:08:10.558Z,3796.00
2018-10-06T11:09:10.580Z,3808.00
2018-10-06T11:10:10.607Z,3820.00
2018-10-06T11:11:10.691Z,3660.00
2018-10-06T11:12:10.656Z,3628.00
2018-10-06T11:13:10.678Z,3596.00
2018-10-06T11:14:10.706Z,3580.00
2018-10-06T11:15:10.728Z,3556.00
2018-10-06T11:16:10.754Z,3440.00
2018-10-06T11:17:10.794Z,3452.00
2018-10-06T11:18:10.805Z,3484.00
2018-10-06T11:19:10.826Z,3476.00
2018-10-06T11:20:10.854Z,3652.00
2018-10-06T11:21:10.882Z,3588.00
2018-10-06T11:22:10.906Z,3740.00
2018-10-06T11:23:10.926Z,3780.00
2018-10-06T11:24:10.952Z,3760.00
2018-10-06T11:25:10.980Z,3768.00
2018-10-06T11:26:10.999Z,3804.00
2018-10-06T11:27:11.029Z,3792.00
2018-10-06T11:28:11.052Z,3812.00
2018-10-06T11:29:11.073Z,3788.00
2018-10-06T11:30:11.098Z,3724.00
2018-10-06T11:31:11.126Z,3600.00
2018-10-06T11:32:11.150Z,3636.00
2018-10-06T11:33:11.175Z,3568.00
2018-10-06T11:34:11.198Z,3756.00
2018-10-06T11:35:11.221Z,3564.00
2018-10-06T11:36:11.250Z,3692.00
2018-10-06T11:37:11.292Z,3748.00
2018-10-06T11:38:11.374Z,3796.00
2018-10-06T11:39:11.324Z,3748.00
2018-10-06T11:40:11.348Z,3700.00
2018-10-06T11:41:11.372Z,3732.00
2018-10-06T11:42:11.396Z,3796.00
2018-10-06T11:43:11.423Z,3848.00
2018-10-06T11:44:11.450Z,3772.00
2018-10-06T11:45:11.471Z,3896.00
2018-10-06T11:46:11.500Z,3804.00
2018-10-06T11:47:11.529Z,3776.00
2018-10-06T11:48:11.546Z,3836.00
2018-10-06T11:49:11.572Z,3912.00
2018-10-06T11:50:11.652Z,3932.00
2018-10-06T11:51:11.624Z,3864.00
2018-10-06T11:52:11.650Z,3236.00
2018-10-06T11:53:11.675Z,3468.00
2018-10-06T11:54:11.698Z,3692.00
2018-10-06T11:55:11.725Z,3220.00
2018-10-06T11:56:11.747Z,3520.00
2018-10-06T11:57:11.773Z,3540.00
2018-10-06T11:58:11.798Z,3220.00
2018-10-06T11:59:11.825Z,3524.00
2018-10-06T12:00:12.077Z,3516.00
2018-10-06T12:01:11.880Z,3580.00
2018-10-06T12:02:11.901Z,3664.00
2018-10-06T12:03:11.926Z,3436.00
2018-10-06T12:04:11.951Z,3608.00
2018-10-06T12:05:11.976Z,3720.00
2018-10-06T12:06:11.998Z,3724.00
2018-10-06T12:07:12.073Z,3556.00
2018-10-06T12:08:12.052Z,3700.00
2018-10-06T12:09:12.077Z,3864.00
2018-10-06T12:10:12.102Z,3916.00
2018-10-06T12:11:12.127Z,3904.00
2018-10-06T12:12:12.150Z,3860.00
2018-10-06T12:13:12.178Z,3796.00
2018-10-06T12:14:12.201Z,3900.00
2018-10-06T12:15:12.230Z,3944.00
2018-10-06T12:16:12.251Z,3984.00
2018-10-06T12:17:12.276Z,3576.00
2018-10-06T12:18:12.304Z,3884.00
2018-10-06T12:19:12.327Z,3828.00
2018-10-06T12:20:12.359Z,3824.00
2018-10-06T12:21:12.380Z,3808.00
2018-10-06T12:22:12.405Z,3736.00
2018-10-06T12:23:12.430Z,3488.00
2018-10-06T12:24:12.453Z,3544.00
2018-10-06T12:25:12.482Z,3588.00
2018-10-06T12:26:12.620Z,3748.00
2018-10-06T12:27:12.529Z,3624.00
2018-10-06T12:28:12.557Z,3704.00
2018-10-06T12:29:12.581Z,3728.00
2018-10-06T12:30:12.605Z,3728.00
2018-10-06T12:31:12.798Z,3736.00
2018-10-06T12:32:12.660Z,3684.00
2018-10-06T12:33:12.681Z,3668.00
2018-10-06T12:34:12.707Z,3592.00
2018-10-06T12:35:12.777Z,3616.00
2018-10-06T12:36:12.759Z,3552.00
2018-10-06T12:37:12.783Z,3588.00
2018-10-06T12:38:12.809Z,3664.00